Time;durP1;ratioP1;P1;durP2;ratioP2;P2;SDS_P1;SDS_P2;PMS_P1;PMS_P2;Temp;Humidity;BMP_temperature;BMP_pressure;BME280_temperature;BME280_humidity;BME280_pressure;Samples;Min_cycle;Max_cycle;Signal;HPM_P1;HPM_P2
2023/07/18 00:00:19;;;;;;;;;;;;;;;-144.99;100.00;52301.34;4989953;28;19926;-75
2023/07/18 00:02:46;;;;;;;;;;;;;;;-144.99;100.00;52276.88;4986766;28;20526;-74
2023/07/18 00:05:13;;;;;;;;;;;;;;;-144.99;100.00;52280.97;4992074;28;20336;-74
2023/07/18 00:07:40;;;;;;;;;;;;;;;-144.99;100.00;52276.88;5012581;28;19914;-76
2023/07/18 00:10:08;;;;;;;;;;;;;;;-144.99;100.00;52309.50;5003933;28;19926;-74
2023/07/18 00:12:36;;;;;;;;;;;;;;;-144.99;100.00;52285.03;4990718;28;19930;-72
2023/07/18 00:15:03;;;;;;;;;;;;;;;-144.99;100.00;52291.16;4989467;28;19930;-75
2023/07/18 00:17:31;;;;;;;;;;;;;;;-144.99;100.00;52344.16;4986715;28;20032;-73
2023/07/18 00:19:58;;;;;;;;;;;;;;;-144.99;100.00;52321.72;4991010;28;19950;-74
2023/07/18 00:22:24;;;;;;;;;;;;;;;-144.99;100.00;52307.47;5018655;28;19914;-74
2023/07/18 00:24:51;;;;;;;;;;;;;;;-144.99;100.00;52342.09;4993821;28;19925;-73
2023/07/18 00:27:17;;;;;;;;;;;;;;;-144.99;100.00;52285.03;4990660;28;19926;-74
2023/07/18 00:29:45;;;;;;;;;;;;;;;-144.99;100.00;52297.25;4989991;28;20273;-75
2023/07/18 00:32:12;;;;;;;;;;;;;;;-144.99;100.00;52293.19;4985383;28;20424;-75
2023/07/18 00:34:40;;;;;;;;;;;;;;;-144.99;100.00;52309.50;4986251;28;19925;-76
2023/07/18 00:37:07;;;;;;;;;;;;;;;-144.99;100.00;52315.59;4991081;28;19952;-75
2023/07/18 00:39:33;;;;;;;;;;;;;;;-144.99;100.00;52305.41;4990264;28;19935;-74
2023/07/18 00:42:00;;;;;;;;;;;;;;;-144.99;100.00;52305.41;4988392;28;19925;-74
2023/07/18 00:44:27;;;;;;;;;;;;;;;-144.99;100.00;52297.25;4990257;28;19926;-74
2023/07/18 00:46:55;;;;;;;;;;;;;;;-144.99;100.00;52313.56;4987848;28;19937;-72
2023/07/18 00:49:22;;;;;;;;;;;;;;;-144.99;100.00;52317.66;4985759;28;19926;-75
2023/07/18 00:51:49;;;;;;;;;;;;;;;-144.99;100.00;52297.25;4990114;28;20420;-73
2023/07/18 00:54:15;;;;;;;;;;;;;;;-144.99;100.00;52293.19;4989925;28;20304;-74
2023/07/18 00:56:42;;;;;;;;;;;;;;;-144.99;100.00;52336.00;4993989;28;19991;-75
2023/07/18 00:59:10;;;;;;;;;;;;;;;-144.99;100.00;52315.59;5016385;28;19914;-74
2023/07/18 01:01:37;;;;;;;;;;;;;;;-144.99;100.00;52319.69;4972360;28;19937;-74
2023/07/18 01:04:05;;;;;;;;;;;;;;;-144.99;100.00;52305.41;4990150;28;20432;-74
2023/07/18 01:06:32;;;;;;;;;;;;;;;-144.99;100.00;52313.56;4989790;28;19957;-75
2023/07/18 01:08:58;;;;;;;;;;;;;;;-144.99;100.00;52321.72;4988480;28;19936;-75
2023/07/18 01:11:25;;;;;;;;;;;;;;;-144.99;100.00;52327.84;4990445;28;19925;-74
2023/07/18 01:13:51;;;;;;;;;;;;;;;-144.99;100.00;52317.66;4990549;28;20320;-74
2023/07/18 01:16:18;;;;;;;;;;;;;;;-144.99;100.00;52313.56;4987719;28;19926;-76
2023/07/18 01:18:45;;;;;;;;;;;;;;;-144.99;100.00;52333.94;4988864;28;19930;-75
2023/07/18 01:21:13;;;;;;;;;;;;;;;-144.99;100.00;52321.72;4989872;28;20345;-76
2023/07/18 01:23:41;;;;;;;;;;;;;;;-144.99;100.00;52293.19;4990437;28;20392;-75
2023/07/18 01:26:07;;;;;;;;;;;;;;;-144.99;100.00;52289.13;4988997;28;19933;-75
2023/07/18 01:28:34;;;;;;;;;;;;;;;-144.99;100.00;52346.19;4986930;28;19937;-74
2023/07/18 01:31:00;;;;;;;;;;;;;;;-144.99;100.00;52293.19;5000481;28;19925;-74
2023/07/18 01:33:27;;;;;;;;;;;;;;;-144.99;100.00;52313.56;5010070;28;19913;-75
2023/07/18 01:35:54;;;;;;;;;;;;;;;-144.99;100.00;52293.19;5013349;28;20009;-74
2023/07/18 01:38:21;;;;;;;;;;;;;;;-144.99;100.00;52321.72;4989530;28;19934;-75
2023/07/18 01:40:49;;;;;;;;;;;;;;;-144.99;100.00;52340.06;4989756;28;19933;-74
2023/07/18 01:43:15;;;;;;;;;;;;;;;-144.99;100.00;52293.19;4989741;28;20501;-74
2023/07/18 01:45:42;;;;;;;;;;;;;;;-144.99;100.00;52309.50;4988093;28;20303;-75
2023/07/18 01:48:08;;;;;;;;;;;;;;;-144.99;100.00;52329.88;4987228;28;19936;-73
2023/07/18 01:50:35;;;;;;;;;;;;;;;-144.99;100.00;52305.41;4988158;28;19955;-74
2023/07/18 01:53:01;;;;;;;;;;;;;;;-144.99;100.00;52309.50;4988076;28;19937;-74
2023/07/18 01:55:28;;;;;;;;;;;;;;;-144.99;100.00;52329.88;4984972;28;19934;-74
2023/07/18 01:57:56;;;;;;;;;;;;;;;-144.99;100.00;52317.66;4989096;28;19934;-74
2023/07/18 02:00:24;;;;;;;;;;;;;;;-144.99;100.00;52338.03;4989126;28;20345;-76
2023/07/18 02:02:52;;;;;;;;;;;;;;;-144.99;100.00;52321.72;4988967;28;20309;-75
2023/07/18 02:05:20;;;;;;;;;;;;;;;-144.99;100.00;52309.50;4986504;28;20502;-75
2023/07/18 02:07:47;;;;;;;;;;;;;;;-144.99;100.00;52317.66;4988672;28;19929;-74
2023/07/18 02:10:14;;;;;;;;;;;;;;;-144.99;100.00;52297.25;4985189;28;19925;-75
2023/07/18 02:12:41;;;;;;;;;;;;;;;-144.99;100.00;52329.88;5004540;28;20397;-75
2023/07/18 02:15:11;;;;;;;;;;;;;;;-144.99;100.00;52331.91;4983030;28;19926;-74
2023/07/18 02:17:38;;;;;;;;;;;;;;;-144.99;100.00;52311.53;4984699;28;20282;-74
2023/07/18 02:20:06;;;;;;;;;;;;;;;-144.99;100.00;52325.81;4985811;28;19930;-74
2023/07/18 02:22:34;;;;;;;;;;;;;;;-144.99;100.00;52327.84;4989254;28;20363;-73
2023/07/18 02:25:01;;;;;;;;;;;;;;;-144.99;100.00;52305.41;4987823;28;19934;-72
2023/07/18 02:27:27;;;;;;;;;;;;;;;-144.99;100.00;52313.56;4986502;28;20028;-72
2023/07/18 02:29:54;;;;;;;;;;;;;;;-144.99;100.00;52313.56;4985942;28;19933;-72
2023/07/18 02:32:22;;;;;;;;;;;;;;;-144.99;100.00;52350.25;4988752;28;19930;-72
2023/07/18 02:34:49;;;;;;;;;;;;;;;-144.99;100.00;52346.19;4988507;28;20117;-73
2023/07/18 02:37:15;;;;;;;;;;;;;;;-144.99;100.00;52317.66;4988600;28;19932;-75
2023/07/18 02:39:44;;;;;;;;;;;;;;;-144.99;100.00;52333.94;4993815;28;20016;-75
2023/07/18 02:42:11;;;;;;;;;;;;;;;-144.99;100.00;52327.84;4993466;28;19933;-75
2023/07/18 02:44:37;;;;;;;;;;;;;;;-144.99;100.00;52289.13;4994330;28;20359;-74
2023/07/18 02:47:04;;;;;;;;;;;;;;;-144.99;100.00;52313.56;5013215;28;19965;-75
2023/07/18 02:49:32;;;;;;;;;;;;;;;-144.99;100.00;52321.72;5014084;28;19929;-75
2023/07/18 02:51:59;;;;;;;;;;;;;;;-144.99;100.00;52321.72;4991992;28;19973;-74
2023/07/18 02:54:25;;;;;;;;;;;;;;;-144.99;100.00;52329.88;4993078;28;19933;-74
2023/07/18 02:56:52;;;;;;;;;;;;;;;-144.99;100.00;52358.41;4993039;28;19949;-73
2023/07/18 02:59:21;;;;;;;;;;;;;;;-144.99;100.00;52303.38;4991711;28;19925;-73
2023/07/18 03:01:47;;;;;;;;;;;;;;;-144.99;100.00;52362.50;4993860;28;19925;-74
2023/07/18 03:04:14;;;;;;;;;;;;;;;-144.99;100.00;52317.66;4993556;28;19941;-74
2023/07/18 03:06:42;;;;;;;;;;;;;;;-144.99;100.00;52287.06;4991769;28;20048;-73
2023/07/18 03:09:09;;;;;;;;;;;;;;;-144.99;100.00;52309.50;4992790;28;19925;-72
2023/07/18 03:11:35;;;;;;;;;;;;;;;-144.99;100.00;52313.56;4993486;28;20427;-73
2023/07/18 03:14:02;;;;;;;;;;;;;;;-144.99;100.00;52321.72;4994178;28;19937;-73
2023/07/18 03:16:29;;;;;;;;;;;;;;;-144.99;100.00;52338.03;4990889;28;19930;-73
2023/07/18 03:18:58;;;;;;;;;;;;;;;-144.99;100.00;52342.09;5014422;28;19921;-75
2023/07/18 03:21:25;;;;;;;;;;;;;;;-144.99;100.00;52331.91;5013108;28;19968;-74
2023/07/18 03:23:53;;;;;;;;;;;;;;;-144.99;100.00;52333.94;5019733;28;19924;-74
2023/07/18 03:26:20;;;;;;;;;;;;;;;-144.99;100.00;52285.03;5014093;28;19925;-73
2023/07/18 03:28:48;;;;;;;;;;;;;;;-144.99;100.00;52297.25;5006615;28;19925;-74
2023/07/18 03:31:14;;;;;;;;;;;;;;;-144.99;100.00;52319.69;5006333;28;19964;-76
2023/07/18 03:33:41;;;;;;;;;;;;;;;-144.99;100.00;52354.34;5011739;28;19926;-74
2023/07/18 03:36:08;;;;;;;;;;;;;;;-144.99;100.00;52317.66;5013772;28;19950;-74
2023/07/18 03:38:34;;;;;;;;;;;;;;;-144.99;100.00;52321.72;5000387;28;19940;-73
2023/07/18 03:41:02;;;;;;;;;;;;;;;-144.99;100.00;52321.72;4992567;28;19933;-73
2023/07/18 03:43:29;;;;;;;;;;;;;;;-144.99;100.00;52329.88;4999345;28;19933;-73
2023/07/18 03:45:56;;;;;;;;;;;;;;;-144.99;100.00;52333.94;4999940;28;19973;-74
2023/07/18 03:48:23;;;;;;;;;;;;;;;-144.99;100.00;52364.53;4999163;28;19929;-74
2023/07/18 03:50:49;;;;;;;;;;;;;;;-144.99;100.00;52317.66;4991342;28;20036;-75
2023/07/18 03:53:16;;;;;;;;;;;;;;;-144.99;100.00;52317.66;4996768;28;19964;-75
2023/07/18 03:55:43;;;;;;;;;;;;;;;-144.99;100.00;52370.63;4995082;28;19929;-73
2023/07/18 03:58:10;;;;;;;;;;;;;;;-144.99;100.00;52301.34;4994182;28;19926;-74
2023/07/18 04:00:37;;;;;;;;;;;;;;;-144.99;100.00;52323.75;5004458;28;19930;-71
2023/07/18 04:03:04;;;;;;;;;;;;;;;-144.99;100.00;52321.72;4992385;28;20294;-72
2023/07/18 04:05:30;;;;;;;;;;;;;;;-144.99;100.00;52321.72;4982708;28;19950;-71
2023/07/18 04:07:57;;;;;;;;;;;;;;;-144.99;100.00;52317.66;4989208;28;20392;-71
2023/07/18 04:10:23;;;;;;;;;;;;;;;-144.99;100.00;52317.66;4990729;28;20309;-70
2023/07/18 04:12:50;;;;;;;;;;;;;;;-144.99;100.00;52342.09;4990295;28;20038;-72
2023/07/18 04:15:18;;;;;;;;;;;;;;;-144.99;100.00;52301.34;4990345;28;19926;-71
2023/07/18 04:17:44;;;;;;;;;;;;;;;-144.99;100.00;52342.09;4989290;28;19930;-72
2023/07/18 04:20:13;;;;;;;;;;;;;;;-144.99;100.00;52287.06;4985191;28;19930;-72
2023/07/18 04:22:39;;;;;;;;;;;;;;;-144.99;100.00;52327.84;4985309;28;19933;-72
2023/07/18 04:25:06;;;;;;;;;;;;;;;-144.99;100.00;52325.81;4990196;28;20590;-71
2023/07/18 04:27:33;;;;;;;;;;;;;;;-144.99;100.00;52329.88;4985269;28;19997;-72
2023/07/18 04:29:59;;;;;;;;;;;;;;;-144.99;100.00;52317.66;4987876;28;19926;-71
2023/07/18 04:32:27;;;;;;;;;;;;;;;-144.99;100.00;52342.09;4990535;28;19929;-72
2023/07/18 04:34:54;;;;;;;;;;;;;;;-144.99;100.00;52297.25;5006268;28;19914;-73
2023/07/18 04:37:21;;;;;;;;;;;;;;;-144.99;100.00;52313.56;5014087;28;19914;-71
2023/07/18 04:39:47;;;;;;;;;;;;;;;-144.99;100.00;52293.19;5044494;22;19924;-71
2023/07/18 04:42:14;;;;;;;;;;;;;;;-144.99;100.00;52301.34;5047141;28;20409;-68
2023/07/18 04:44:40;;;;;;;;;;;;;;;-144.99;100.00;52313.56;5047467;28;19925;-69
2023/07/18 04:47:08;;;;;;;;;;;;;;;-144.99;100.00;52301.34;5046373;28;19929;-68
2023/07/18 04:49:36;;;;;;;;;;;;;;;-144.99;100.00;52293.19;5044105;28;20458;-68
2023/07/18 04:52:03;;;;;;;;;;;;;;;-144.99;100.00;52321.72;5042135;28;20452;-68
2023/07/18 04:54:30;;;;;;;;;;;;;;;-144.99;100.00;52293.19;5045413;28;19929;-68
2023/07/18 04:56:56;;;;;;;;;;;;;;;-144.99;100.00;52268.72;5042285;28;19924;-68
2023/07/18 04:59:23;;;;;;;;;;;;;;;-144.99;100.00;52321.72;5040738;28;19932;-69
2023/07/18 05:01:52;;;;;;;;;;;;;;;-144.99;100.00;52313.56;5046902;28;19932;-68
2023/07/18 05:04:18;;;;;;;;;;;;;;;-144.99;100.00;52309.50;5046801;28;19935;-69
2023/07/18 05:06:48;;;;;;;;;;;;;;;-144.99;100.00;52344.16;5043913;28;20357;-68
2023/07/18 05:09:15;;;;;;;;;;;;;;;-144.99;100.00;52338.03;5047952;28;19982;-69
2023/07/18 05:11:41;;;;;;;;;;;;;;;-144.99;100.00;52317.66;5044075;28;19951;-68
2023/07/18 05:14:08;;;;;;;;;;;;;;;-144.99;100.00;52295.22;5043015;28;19929;-72
2023/07/18 05:16:35;;;;;;;;;;;;;;;-144.99;100.00;52285.03;5036680;28;20483;-66
2023/07/18 05:19:01;;;;;;;;;;;;;;;-144.99;100.00;52276.88;5042912;28;19937;-67
2023/07/18 05:21:28;;;;;;;;;;;;;;;-144.99;100.00;52329.88;5047260;28;19928;-66
2023/07/18 05:23:56;;;;;;;;;;;;;;;-144.99;100.00;52315.59;5035635;28;19966;-66
2023/07/18 05:26:23;;;;;;;;;;;;;;;-144.99;100.00;52285.03;5043453;28;19925;-66
2023/07/18 05:28:51;;;;;;;;;;;;;;;-144.99;100.00;52309.50;5045608;28;19943;-67
2023/07/18 05:31:17;;;;;;;;;;;;;;;-144.99;100.00;52293.19;4346910;28;10000658;-65
2023/07/18 05:33:44;;;;;;;;;;;;;;;-144.99;100.00;52293.19;5035689;28;20349;-66
2023/07/18 05:36:10;;;;;;;;;;;;;;;-144.99;100.00;52268.72;5040044;28;19925;-67
2023/07/18 05:38:37;;;;;;;;;;;;;;;-144.99;100.00;52291.16;5040262;28;20131;-67
2023/07/18 05:41:05;;;;;;;;;;;;;;;-144.99;100.00;52260.56;5037808;28;19939;-68
2023/07/18 05:43:32;;;;;;;;;;;;;;;-144.99;100.00;52325.81;5043386;28;19932;-67
2023/07/18 05:45:59;;;;;;;;;;;;;;;-144.99;100.00;52303.38;5045317;28;19937;-67
2023/07/18 05:48:25;;;;;;;;;;;;;;;-144.99;100.00;52285.03;5037035;28;20332;-66
2023/07/18 05:50:53;;;;;;;;;;;;;;;-144.99;100.00;52268.72;5036762;28;19929;-68
2023/07/18 05:53:20;;;;;;;;;;;;;;;-144.99;100.00;52285.03;5038112;28;19928;-66
2023/07/18 05:55:46;;;;;;;;;;;;;;;-144.99;100.00;52268.72;5043906;28;19928;-67
2023/07/18 05:58:14;;;;;;;;;;;;;;;-144.99;100.00;52280.97;5039114;28;20357;-67
2023/07/18 06:00:41;;;;;;;;;;;;;;;-144.99;100.00;52297.25;5045162;28;20381;-68
2023/07/18 06:03:07;;;;;;;;;;;;;;;-144.99;100.00;52285.03;5043771;28;19935;-68
2023/07/18 06:05:34;;;;;;;;;;;;;;;-144.99;100.00;52297.25;5044974;28;20050;-68
2023/07/18 06:08:01;;;;;;;;;;;;;;;-144.99;100.00;52276.88;5040508;28;19935;-68
2023/07/18 06:10:27;;;;;;;;;;;;;;;-144.99;100.00;52256.50;5038961;28;19929;-68
2023/07/18 06:12:54;;;;;;;;;;;;;;;-144.99;100.00;52276.88;5041985;28;19936;-68
2023/07/18 06:15:22;;;;;;;;;;;;;;;-144.99;100.00;52264.66;5043858;28;20002;-69
2023/07/18 06:17:49;;;;;;;;;;;;;;;-144.99;100.00;52280.97;5038103;28;20461;-67
2023/07/18 06:20:16;;;;;;;;;;;;;;;-144.99;100.00;52232.03;5036198;28;20338;-68
2023/07/18 06:22:42;;;;;;;;;;;;;;;-144.99;99.50;52260.56;5044757;28;19936;-70
2023/07/18 06:25:09;;;;;;;;;;;;;;;-144.99;99.41;52223.88;5038940;28;19960;-68
2023/07/18 06:27:37;;;;;;;;;;;;;;;-144.99;98.54;52278.91;5043633;28;20423;-68
2023/07/18 06:30:04;;;;;;;;;;;;;;;-144.99;97.65;52272.81;5043253;28;19929;-68
2023/07/18 06:32:32;;;;;;;;;;;;;;;-144.99;97.49;52248.34;5036058;28;19935;-69
2023/07/18 06:34:59;;;;;;;;;;;;;;;-144.99;96.77;52278.91;5044139;28;19952;-68
2023/07/18 06:37:25;;;;;;;;;;;;;;;-144.99;96.31;52236.13;5044001;28;20392;-68
2023/07/18 06:39:53;;;;;;;;;;;;;;;-144.99;95.83;52248.34;5042942;28;19982;-68
2023/07/18 06:42:20;;;;;;;;;;;;;;;-144.99;95.65;52264.66;5042933;28;19928;-69
2023/07/18 06:44:46;;;;;;;;;;;;;;;-144.99;95.44;52278.91;5043453;28;19924;-68
2023/07/18 06:47:13;;;;;;;;;;;;;;;-144.99;95.18;52236.13;5033298;28;19936;-68
2023/07/18 06:49:41;;;;;;;;;;;;;;;-144.99;94.44;52219.81;5041061;28;19933;-68
2023/07/18 06:52:08;;;;;;;;;;;;;;;-144.99;93.92;52256.50;5036961;28;19936;-68
2023/07/18 06:54:35;;;;;;;;;;;;;;;-144.99;93.77;52223.88;5032451;28;20025;-69
2023/07/18 06:57:02;;;;;;;;;;;;;;;-144.99;92.63;52256.50;5043573;28;19943;-68
2023/07/18 06:59:28;;;;;;;;;;;;;;;-144.99;93.61;52221.84;5041779;28;20393;-68
2023/07/18 07:01:55;;;;;;;;;;;;;;;-144.99;92.04;52248.34;5037706;28;20020;-69
2023/07/18 07:04:22;;;;;;;;;;;;;;;-144.99;91.64;52246.31;5043534;28;19937;-68
2023/07/18 07:06:50;;;;;;;;;;;;;;;-144.99;92.20;52232.03;5042994;28;20428;-67
2023/07/18 07:09:16;;;;;;;;;;;;;;;-144.99;92.88;52256.50;5032581;28;19952;-69
2023/07/18 07:11:43;;;;;;;;;;;;;;;-144.99;93.97;52285.03;5038265;28;20031;-68
2023/07/18 07:14:11;;;;;;;;;;;;;;;-144.99;93.65;52252.44;5043855;28;19948;-68
2023/07/18 07:16:37;;;;;;;;;;;;;;;-144.99;94.50;52272.81;5045922;28;19928;-67
2023/07/18 07:19:05;;;;;;;;;;;;;;;-144.99;94.24;52276.88;5042598;28;19929;-67
2023/07/18 07:21:32;;;;;;;;;;;;;;;-144.99;94.66;52207.59;5044615;28;19933;-67
2023/07/18 07:24:00;;;;;;;;;;;;;;;-144.99;94.88;52268.72;5043963;28;20266;-67
2023/07/18 07:26:27;;;;;;;;;;;;;;;-144.99;94.90;52225.94;5039588;28;19924;-68
2023/07/18 07:28:53;;;;;;;;;;;;;;;-144.99;93.35;52244.28;5043585;28;19940;-68
2023/07/18 07:31:20;;;;;;;;;;;;;;;-144.99;93.10;52240.19;5041847;28;20183;-69
2023/07/18 07:33:47;;;;;;;;;;;;;;;-144.99;92.97;52240.19;5046566;28;19936;-67
2023/07/18 07:36:15;;;;;;;;;;;;;;;-144.99;93.36;52264.66;5046550;28;19932;-67
2023/07/18 07:38:41;;;;;;;;;;;;;;;-144.99;93.49;52244.28;5040768;28;20012;-67
2023/07/18 07:41:09;;;;;;;;;;;;;;;-144.99;92.73;52264.66;5044584;28;19983;-67
2023/07/18 07:43:36;;;;;;;;;;;;;;;-144.99;91.59;52227.97;5045128;28;19925;-68
2023/07/18 07:46:03;;;;;;;;;;;;;;;-144.99;90.93;52223.88;5047163;28;19971;-68
2023/07/18 07:48:29;;;;;;;;;;;;;;;-144.99;89.86;52238.16;5044139;28;20020;-68
2023/07/18 07:50:57;;;;;;;;;;;;;;;-144.99;89.55;52215.75;5043879;28;20400;-67
2023/07/18 07:53:23;;;;;;;;;;;;;;;-144.99;89.87;52195.34;5043557;28;19929;-68
2023/07/18 07:55:50;;;;;;;;;;;;;;;-144.99;89.98;52211.66;5036178;28;19940;-68
2023/07/18 07:58:18;;;;;;;;;;;;;;;-144.99;88.51;52223.88;5044465;28;19951;-66
2023/07/18 08:00:44;;;;;;;;;;;;;;;-144.99;87.30;52219.81;5044958;28;19925;-68
2023/07/18 08:03:11;;;;;;;;;;;;;;;-144.99;86.57;52219.81;5047893;28;19947;-68
2023/07/18 08:05:38;;;;;;;;;;;;;;;-144.99;85.31;52240.19;5046489;28;20281;-68
2023/07/18 08:08:05;;;;;;;;;;;;;;;-144.99;85.10;52227.97;5044030;28;19964;-68
2023/07/18 08:10:32;;;;;;;;;;;;;;;-144.99;84.50;52223.88;5039603;28;19933;-69
2023/07/18 08:12:58;;;;;;;;;;;;;;;-144.99;83.77;52238.16;5039221;28;19983;-70
2023/07/18 08:15:26;;;;;;;;;;;;;;;-144.99;84.03;52223.88;5037051;28;19932;-68
2023/07/18 08:17:54;;;;;;;;;;;;;;;-144.99;83.75;52211.66;5041084;28;19928;-69
2023/07/18 08:20:21;;;;;;;;;;;;;;;-144.99;83.14;52242.22;5041006;28;20025;-68
2023/07/18 08:22:48;;;;;;;;;;;;;;;-144.99;82.72;52236.13;5036339;28;19929;-69
2023/07/18 08:25:14;;;;;;;;;;;;;;;-144.99;80.99;52203.50;5046708;28;19936;-68
2023/07/18 08:27:41;;;;;;;;;;;;;;;-144.99;79.99;52215.75;5046134;28;19929;-68
2023/07/18 08:30:08;;;;;;;;;;;;;;;-144.99;79.26;52219.81;5044610;28;20195;-68
2023/07/18 08:32:36;;;;;;;;;;;;;;;-144.99;76.64;52221.84;5041579;28;19933;-68
2023/07/18 08:35:02;;;;;;;;;;;;;;;-144.99;76.39;52215.75;5045402;28;20297;-69
2023/07/18 08:37:29;;;;;;;;;;;;;;;-144.99;75.90;52172.94;5040509;28;19982;-69
2023/07/18 08:39:56;;;;;;;;;;;;;;;-144.99;75.62;52199.44;5046254;28;19928;-68
2023/07/18 08:42:25;;;;;;;;;;;;;;;-144.99;74.53;52215.75;5044187;28;19929;-69
2023/07/18 08:44:53;;;;;;;;;;;;;;;-144.99;75.31;52232.03;5046674;28;20377;-68
2023/07/18 08:47:21;;;;;;;;;;;;;;;-144.99;75.40;52179.06;5046430;28;19933;-68
2023/07/18 08:49:49;;;;;;;;;;;;;;;-144.99;75.07;52215.75;5044650;28;19928;-69
2023/07/18 08:52:15;;;;;;;;;;;;;;;-144.99;75.18;52232.03;5038731;28;19930;-68
2023/07/18 08:54:42;;;;;;;;;;;;;;;-144.99;74.33;52219.81;5047439;28;19931;-68
2023/07/18 08:57:09;;;;;;;;;;;;;;;-144.99;73.40;52250.38;5043689;28;20385;-69
2023/07/18 08:59:35;;;;;;;;;;;;;;;-144.99;72.97;52170.91;5041037;28;20285;-69
2023/07/18 09:02:02;;;;;;;;;;;;;;;-144.99;73.83;52199.44;5045507;28;19984;-69
2023/07/18 09:04:28;;;;;;;;;;;;;;;-144.99;72.04;52193.31;5043771;28;20010;-69
2023/07/18 09:06:58;;;;;;;;;;;;;;;-144.99;71.96;52203.50;5038681;28;20382;-69
2023/07/18 09:09:25;;;;;;;;;;;;;;;-144.99;70.92;52207.59;5032132;28;19932;-69
2023/07/18 09:11:58;;;;;;;;;;;;;;;-144.99;70.80;52203.50;5037836;28;20385;-68
2023/07/18 09:14:26;;;;;;;;;;;;;;;-144.99;72.24;52130.13;5044181;28;20040;-69
2023/07/18 09:16:53;;;;;;;;;;;;;;;-144.99;71.71;52168.84;5039905;28;20032;-69
2023/07/18 09:19:20;;;;;;;;;;;;;;;-144.99;70.61;52193.31;5042122;28;20023;-69
2023/07/18 09:21:47;;;;;;;;;;;;;;;-144.99;70.39;52164.78;5045825;28;19936;-69
2023/07/18 09:24:15;;;;;;;;;;;;;;;-144.99;70.08;52191.28;4694418;28;10000205;-68
2023/07/18 09:26:42;;;;;;;;;;;;;;;-144.99;69.34;52205.53;5040075;28;20325;-69
2023/07/18 09:29:12;;;;;;;;;;;;;;;-144.99;69.90;52215.75;5044783;28;20606;-70
2023/07/18 09:31:39;;;;;;;;;;;;;;;-144.99;67.35;52174.97;5042033;28;19929;-68
2023/07/18 09:34:11;;;;;;;;;;;;;;;-144.99;67.18;52191.28;5038478;28;19979;-69
2023/07/18 09:36:38;;;;;;;;;;;;;;;-144.99;67.34;52187.19;5045319;28;20758;-68
2023/07/18 09:39:05;;;;;;;;;;;;;;;-144.99;66.53;52158.66;5042375;28;19928;-70
2023/07/18 09:41:34;;;;;;;;;;;;;;;-144.99;65.73;52185.16;5038928;28;19933;-68
2023/07/18 09:44:01;;;;;;;;;;;;;;;-144.99;65.98;52183.13;5037481;28;19932;-68
2023/07/18 09:46:28;;;;;;;;;;;;;;;-144.99;65.18;52156.63;5037166;28;19928;-68
2023/07/18 09:48:55;;;;;;;;;;;;;;;-144.99;64.76;52130.13;5041127;28;19928;-68
2023/07/18 09:51:30;;;;;;;;;;;;;;;-144.99;64.76;52166.81;5035719;28;20472;-69
2023/07/18 09:53:58;;;;;;;;;;;;;;;-144.99;65.59;52166.81;5045928;28;19925;-69
2023/07/18 09:56:25;;;;;;;;;;;;;;;-144.99;65.88;52166.81;5043207;28;19936;-70
2023/07/18 09:58:56;;;;;;;;;;;;;;;-144.99;65.45;52183.13;5045023;28;19925;-68
2023/07/18 10:01:23;;;;;;;;;;;;;;;-144.99;63.59;52187.19;5045345;28;19925;-68
2023/07/18 10:03:52;;;;;;;;;;;;;;;-144.99;64.22;52166.81;5044643;28;19937;-69
2023/07/18 10:06:19;;;;;;;;;;;;;;;-144.99;63.52;52168.84;5042205;28;20329;-68
2023/07/18 10:08:46;;;;;;;;;;;;;;;-144.99;63.01;52150.53;5040396;28;19929;-69
2023/07/18 10:11:13;;;;;;;;;;;;;;;-144.99;62.27;52158.66;5044975;28;20437;-70
2023/07/18 10:13:41;;;;;;;;;;;;;;;-144.99;62.88;52121.97;5045596;28;19932;-70
2023/07/18 10:16:19;;;;;;;;;;;;;;;-144.99;62.84;52138.28;5042696;28;19983;-70
2023/07/18 10:18:46;;;;;;;;;;;;;;;-144.99;63.71;52113.84;5042727;28;19932;-70
2023/07/18 10:21:13;;;;;;;;;;;;;;;-144.99;62.94;52146.44;5042643;28;19931;-69
2023/07/18 10:23:41;;;;;;;;;;;;;;;-144.99;61.91;52134.22;5042608;28;19932;-70
2023/07/18 10:26:07;;;;;;;;;;;;;;;-144.99;63.30;52101.59;5044374;28;19983;-69
2023/07/18 10:28:42;;;;;;;;;;;;;;;-144.99;61.88;52077.16;5039830;28;20701;-68
2023/07/18 10:31:09;;;;;;;;;;;;;;;-144.99;62.57;52117.91;5043100;28;19925;-70
2023/07/18 10:33:41;;;;;;;;;;;;;;;-144.99;62.07;52138.28;5042918;28;19928;-68
2023/07/18 10:36:23;;;;;;;;;;;;;;;-144.99;61.43;52048.63;5033812;28;19999;-69
2023/07/18 10:38:51;;;;;;;;;;;;;;;-144.99;60.53;52113.84;5042529;28;19951;-70
2023/07/18 10:41:18;;;;;;;;;;;;;;;-144.99;60.95;52085.31;5042129;28;19952;-70
2023/07/18 10:43:47;;;;;;;;;;;;;;;-144.99;60.86;52140.31;5037666;28;19928;-70
2023/07/18 10:46:14;;;;;;;;;;;;;;;-144.99;61.29;52073.06;5034509;28;19944;-69
2023/07/18 10:48:49;;;;;;;;;;;;;;;-144.99;61.63;52113.84;5041997;28;19932;-69
2023/07/18 10:51:16;;;;;;;;;;;;;;;-144.99;60.57;52136.25;5044617;28;19975;-71
2023/07/18 10:53:44;;;;;;;;;;;;;;;-144.99;61.07;52073.06;5046559;28;19936;-71
2023/07/18 10:56:19;;;;;;;;;;;;;;;-144.99;60.89;52077.16;5041676;28;19929;-70
2023/07/18 10:58:46;;;;;;;;;;;;;;;-144.99;61.95;52154.59;5046062;28;19925;-68
2023/07/18 11:01:13;;;;;;;;;;;;;;;-144.99;61.12;52162.75;5040208;28;19960;-70
2023/07/18 11:03:45;;;;;;;;;;;;;;;-144.99;61.78;52146.44;5047825;28;19929;-69
2023/07/18 11:06:14;;;;;;;;;;;;;;;-144.99;62.17;52142.38;5040120;28;19936;-69
2023/07/18 11:08:44;;;;;;;;;;;;;;;-144.99;62.09;52077.16;5044639;28;19928;-69
2023/07/18 11:11:10;;;;;;;;;;;;;;;-144.99;61.79;52085.31;5040344;28;19929;-69
2023/07/18 11:13:37;;;;;;;;;;;;;;;-144.99;61.00;52077.16;5047272;28;19932;-69
2023/07/18 11:16:06;;;;;;;;;;;;;;;-144.99;59.96;52069.00;5047320;28;20031;-70
2023/07/18 11:18:33;;;;;;;;;;;;;;;-144.99;60.59;52105.69;5046717;28;20027;-71
2023/07/18 11:21:02;;;;;;;;;;;;;;;-144.99;61.34;52150.53;5042064;28;19940;-69
2023/07/18 11:23:30;;;;;;;;;;;;;;;-144.99;60.89;52089.38;5032432;28;19933;-71
2023/07/18 11:25:57;;;;;;;;;;;;;;;-144.99;61.33;52064.91;5040255;28;19944;-70
2023/07/18 11:28:28;;;;;;;;;;;;;;;-144.99;60.74;52117.91;5033716;28;19931;-69
2023/07/18 11:30:55;;;;;;;;;;;;;;;-144.99;61.46;52166.81;5033265;28;19929;-69
2023/07/18 11:33:28;;;;;;;;;;;;;;;-144.99;61.65;52168.84;5032385;28;20356;-68
2023/07/18 11:35:56;;;;;;;;;;;;;;;-144.99;61.90;52199.44;5032910;28;19928;-68
2023/07/18 11:38:24;;;;;;;;;;;;;;;-144.99;62.74;52187.19;5031403;28;19983;-70
2023/07/18 11:40:52;;;;;;;;;;;;;;;-144.99;63.59;52199.44;5036050;28;20366;-72
2023/07/18 11:43:19;;;;;;;;;;;;;;;-144.99;64.59;52183.13;5034110;28;19925;-69
2023/07/18 11:45:47;;;;;;;;;;;;;;;-144.99;64.67;52215.75;5034352;28;19936;-69
2023/07/18 11:48:14;;;;;;;;;;;;;;;-144.99;65.10;52232.03;5040036;28;20362;-69
2023/07/18 11:50:43;;;;;;;;;;;;;;;-144.99;64.83;52223.88;5040788;28;19924;-69
2023/07/18 11:53:10;;;;;;;;;;;;;;;-144.99;64.28;52232.03;5035197;28;20373;-69
2023/07/18 11:55:37;;;;;;;;;;;;;;;-144.99;64.42;52187.19;5038845;28;20358;-69
2023/07/18 11:58:07;;;;;;;;;;;;;;;-144.99;64.45;52150.53;5035500;28;19925;-68
2023/07/18 12:00:35;;;;;;;;;;;;;;;-144.99;63.15;52168.84;5038853;28;20503;-68
2023/07/18 12:03:02;;;;;;;;;;;;;;;-144.99;63.37;52146.44;5036870;28;20360;-69
2023/07/18 12:05:29;;;;;;;;;;;;;;;-144.99;62.69;52215.75;5041097;28;20133;-71
2023/07/18 12:07:55;;;;;;;;;;;;;;;-144.99;62.95;52158.66;5036956;28;19925;-68
2023/07/18 12:10:22;;;;;;;;;;;;;;;-144.99;62.74;52138.28;5034784;28;19929;-69
2023/07/18 12:12:49;;;;;;;;;;;;;;;-144.99;62.60;52126.06;5036029;28;20455;-69
2023/07/18 12:15:17;;;;;;;;;;;;;;;-144.99;62.51;52166.81;5035036;28;19936;-69
2023/07/18 12:17:43;;;;;;;;;;;;;;;-144.99;61.59;52089.38;5032523;28;19929;-69
2023/07/18 12:20:11;;;;;;;;;;;;;;;-144.99;61.99;52126.06;5035998;28;19924;-68